Latest Coastal Weather Observations for Cooktown

IDQ60701

Issued at 11:42 pm EST Thursday 2 February 2023 (issued every 10 minutes, with the page automatically refreshed every 10 minutes)

About coastal observations | Map of coastal stations | Coastal observations for QLD | Marine services | Other Formats
Station Details ID: 031209 Name: COOKTOWN AIRPORT Lat: -15.45 Lon: 145.19 Height: 4.8 m
Data from the previous 72 hours. | See also: Recent months at Cooktown
Date/Time
EST
Wind Sea
Height
m
Swell Vis
km
Cloud Weather Temp
°C
Press
MSL
hPa
Rain since
9am
mm
Dir  Spd
kts
Gust
kts
Height
m
Period
s
Dir
02/11:30pm W 3 6 - - - - 10 Clear - 25.8 1003.0 17.2
02/11:00pm WSW 3 4 - - - - 10 - - 25.7 1003.0 17.2
02/10:30pm W 4 5 - - - - 10 - - 25.7 1003.0 17.2
02/10:00pm CALM 0 0 - - - - 10 - - 25.8 1002.9 17.2
02/09:30pm S 2 4 - - - - 10 - - 25.8 1003.0 17.2
02/09:00pm S 1 5 - - - - 10 Mostly cloudy - 26.0 1002.9 17.2
02/08:30pm WNW 3 4 - - - - 10 Partly cloudy - 26.0 1003.2 17.2
02/08:00pm WSW 4 6 - - - - 10 Partly cloudy - 26.2 1003.3 17.2
02/07:30pm SW 2 8 - - - - 10 Partly cloudy - 26.4 1002.9 17.2
02/07:00pm CALM 0 0 - - - - 10 - - 26.3 1002.3 17.2
02/06:30pm NW 1 4 - - - - 10 - - 26.5 1002.0 17.2
02/06:01pm N 5 10 - - - - 10 Partly cloudy - 26.0 1001.6 17.2
02/06:00pm N 5 10 - - - - 10 Cloudy Thunderstorm 26.0 1001.6 17.2
02/05:31pm NNE 6 10 - - - - 9 Partly cloudy - 26.0 1001.1 16.6
02/05:30pm NNE 6 10 - - - - 9 Partly cloudy - 25.9 1001.1 16.6
02/05:29pm NNE 5 10 - - - - 8 Partly cloudy - 26.0 1001.0 16.6
02/05:06pm N 6 11 - - - - 0.4 Partly cloudy - 26.8 1001.6 12.6
02/05:00pm WNW 11 18 - - - - 0.8 Partly cloudy - 26.9 1001.8 6.8
02/04:54pm WNW 14 20 - - - - 5 Partly cloudy - 27.5 1001.4 1.2
02/04:53pm WNW 15 20 - - - - 7 Partly cloudy - 27.7 1001.3 0.8
02/04:30pm NNE 7 11 - - - - 10 - - 32.0 999.3 0.0
02/04:28pm NNE 8 11 - - - - 10 - - 32.0 999.3 0.0
02/04:00pm NNE 8 11 - - - - 10 - - 31.8 999.3 0.0
02/03:30pm NE 10 15 - - - - 10 Partly cloudy - 33.2 999.7 0.0
02/03:00pm E 9 12 - - - - 10 Partly cloudy - 33.4 1000.0 0.0
02/02:30pm SE 8 14 - - - - 10 Partly cloudy - 33.2 1000.4 0.0
02/02:00pm WNW 5 8 - - - - 10 - - 34.7 1001.0 0.0
02/01:30pm NW 6 10 - - - - 10 Partly cloudy - 34.2 1001.6 0.0
02/01:00pm WNW 6 9 - - - - 10 - - 34.5 1002.2 0.0
02/12:30pm NW 8 14 - - - - 10 Partly cloudy - 34.0 1002.8 0.0
02/12:00pm WNW 7 11 - - - - 10 Mostly clear - 33.3 1003.2 0.0
02/11:30am WNW 7 10 - - - - 10 Partly cloudy - 33.1 1003.6 0.0
02/11:00am WSW 5 8 - - - - 10 Partly cloudy - 32.3 1004.0 0.0
02/10:30am WNW 5 10 - - - - 10 Partly cloudy - 31.6 1004.3 0.0
02/10:00am W 4 7 - - - - 10 Partly cloudy - 30.5 1004.5 0.0
02/09:30am NW 5 8 - - - - 10 Partly cloudy - 29.9 1004.5 0.0
02/09:00am WNW 6 8 - - - - 10 Mostly clear - 29.1 1004.9 4.8
02/08:30am WNW 6 8 - - - - 10 Partly cloudy - 28.2 1005.1 4.8
02/08:00am W 5 7 - - - - 10 Cloudy - 27.2 1005.2 4.8
02/07:30am W 5 7 - - - - 10 Partly cloudy - 26.5 1005.0 4.8
02/07:00am WNW 7 9 - - - - 10 Partly cloudy - 26.1 1004.7 4.8
02/06:30am WNW 6 9 - - - - 10 Partly cloudy - 25.8 1004.2 4.8
02/06:00am WNW 2 5 - - - - 10 - - 25.1 1003.9 4.8
02/05:30am WSW 1 3 - - - - 10 - - 25.2 1003.6 4.8
02/05:00am WSW 4 6 - - - - 10 - - 25.3 1003.2 4.8
02/04:30am CALM 0 0 - - - - 10 - - 25.4 1003.3 4.8
02/04:00am WNW 3 4 - - - - 10 - - 25.3 1003.4 4.8
02/03:30am WNW 3 5 - - - - 10 - - 25.2 1003.4 4.8
02/03:00am NW 3 4 - - - - 10 - - 25.2 1003.4 4.8
02/02:30am WSW 1 4 - - - - 10 Partly cloudy - 25.2 1003.7 4.8
02/02:00am SW 4 5 - - - - 10 - - 25.5 1003.9 4.8
02/01:30am CALM 0 0 - - - - 10 - - 25.2 1003.9 4.8
02/01:00am CALM 0 3 - - - - 10 - - 25.4 1004.3 4.8
02/12:30am W 4 5 - - - - 10 - - 25.6 1004.7 4.8
02/12:09am W 3 4 - - - - 5 - - 25.6 1004.9 4.8
02/12:00am WNW 3 4 - - - - 10 Cloudy - 25.6 1005.0 4.8
 
Date/Time
EST
Wind Sea
Height
m
Swell Vis
km
Cloud Weather Temp
°C
Press
MSL
hPa
Rain since
9am
mm
Dir  Spd
kts
Gust
kts
Height
m
Period
s
Dir
01/11:30pm WNW 5 6 - - - - 10 - - 25.7 1005.5 4.8
01/11:00pm W 3 4 - - - - 7 - - 25.7 1005.7 4.8
01/10:42pm CALM 0 0 - - - - 10 - - 25.8 1005.7 4.8
01/10:30pm SW 3 4 - - - - 3 - - 25.9 1005.7 4.6
01/10:23pm WSW 1 4 - - - - 4 - - 25.9 1005.7 4.6
01/10:20pm CALM 0 2 - - - - 10 - - 25.8 1005.7 4.6
01/10:02pm WSW 1 3 - - - - 5 Partly cloudy - 25.8 1005.6 4.6
01/10:00pm WSW 1 3 - - - - 10 Partly cloudy - 25.8 1005.6 4.6
01/09:30pm S 1 3 - - - - 10 - - 25.6 1005.2 4.6
01/09:00pm WNW 2 4 - - - - 10 Mostly cloudy - 25.5 1004.8 4.6
01/08:30pm NW 4 5 - - - - 10 - - 25.6 1004.9 4.6
01/08:00pm WNW 3 5 - - - - 10 Partly cloudy - 25.5 1004.6 4.6
01/07:30pm CALM 0 0 - - - - 10 Partly cloudy - 25.4 1004.5 4.6
01/07:00pm SW 5 6 - - - - 10 Partly cloudy - 25.3 1003.9 4.6
01/06:30pm SW 1 5 - - - - 10 Partly cloudy - 25.7 1003.4 4.6
01/06:23pm WSW 4 7 - - - - 10 Partly cloudy - 25.7 1003.4 4.6
01/06:00pm NNE 5 6 - - - - 4 Cloudy Rain 25.7 1003.2 3.0
01/05:54pm NE 5 7 - - - - 5 Partly cloudy - 26.0 1003.0 2.8
01/05:30pm ESE 8 11 - - - - 10 Partly cloudy - 26.0 1003.0 1.8
01/05:24pm SE 7 11 - - - - 10 Partly cloudy - 26.6 1002.6 1.8
01/05:00pm SE 5 9 - - - - 10 Partly cloudy - 28.3 1002.7 1.6
01/04:44pm NE 8 11 - - - - 10 Partly cloudy - 28.2 1002.0 1.6
01/04:38pm ENE 7 11 - - - - 10 Partly cloudy - 28.4 1001.9 1.6
01/04:37pm E 7 11 - - - - 10 Partly cloudy - 28.4 1001.9 1.6
01/04:30pm SSE 4 8 - - - - 3 Partly cloudy - 28.6 1002.0 1.6
01/04:23pm SSE 8 11 - - - - 4 Partly cloudy - 28.6 1002.0 1.0
01/04:21pm SSE 8 11 - - - - 6 Partly cloudy - 28.8 1002.0 0.4
01/04:18pm SSE 7 11 - - - - 10 Partly cloudy - 29.3 1001.8 0.0
01/04:00pm NNE 9 12 - - - - 10 Partly cloudy - 31.4 1001.5 0.0
01/03:51pm NE 7 12 - - - - 10 Partly cloudy - 31.6 1001.6 0.0
01/03:30pm NNE 9 11 - - - - 10 Partly cloudy - 31.5 1001.7 0.0
01/03:00pm NNE 8 11 - - - - 10 Mostly clear Thunderstorm 32.0 1002.3 0.0
01/02:30pm NNE 9 13 - - - - 10 Partly cloudy - 32.1 1003.0 0.0
01/02:24pm NNE 11 14 - - - - 10 Partly cloudy - 32.0 1002.9 0.0
01/02:14pm NNE 7 11 - - - - 10 Partly cloudy - 33.6 1002.9 0.0
01/02:00pm ENE 3 5 - - - - 10 - - 34.0 1003.0 0.0
01/01:30pm N 6 8 - - - - 10 Partly cloudy - 32.4 1003.6 0.0
01/01:00pm W 5 8 - - - - 10 - - 32.6 1004.2 0.0
01/12:30pm N 3 5 - - - - 10 Partly cloudy - 33.0 1004.7 0.0
01/12:00pm WSW 4 7 - - - - 10 Mostly clear - 32.2 1005.2 0.0
01/11:30am WSW 5 9 - - - - 10 Partly cloudy - 32.1 1005.7 0.0
01/11:00am WSW 7 10 - - - - 10 Partly cloudy - 31.7 1006.2 0.0
01/10:30am WSW 4 7 - - - - 10 Partly cloudy - 30.8 1006.3 0.0
01/10:00am WSW 4 6 - - - - 10 Partly cloudy - 29.6 1006.6 0.0
01/09:30am SW 6 9 - - - - 10 Partly cloudy - 28.8 1006.6 0.0
01/09:00am W 4 6 - - - - 10 Mostly clear - 28.6 1006.9 0.0
01/08:30am W 5 7 - - - - 10 Partly cloudy - 27.7 1007.0 0.0
01/08:00am W 2 5 - - - - 10 Partly cloudy - 27.7 1006.9 0.0
01/07:30am W 3 5 - - - - 10 - - 26.1 1006.7 0.0
01/07:00am CALM 0 0 - - - - 10 - - 25.1 1006.5 0.0
01/06:30am CALM 0 0 - - - - 10 - - 24.7 1006.2 0.0
01/06:00am W 3 4 - - - - 10 Mostly clear - 24.9 1005.8 0.0
01/05:30am CALM 0 0 - - - - 10 - - 25.0 1005.3 0.0
01/05:00am CALM 0 0 - - - - 10 Partly cloudy - 25.1 1005.1 0.0
01/04:30am CALM 0 1 - - - - 10 - - 25.2 1004.9 0.0
01/04:00am WSW 3 5 - - - - 10 - - 25.4 1004.7 0.0
01/03:30am W 5 7 - - - - 10 - - 25.5 1004.7 0.0
01/03:00am WSW 5 7 - - - - 10 Cloudy - 25.7 1004.6 0.0
01/02:30am WNW 4 5 - - - - 10 - - 25.6 1004.9 0.0
01/02:00am WSW 3 3 - - - - 10 - - 25.9 1005.2 0.0
01/01:30am SW 3 4 - - - - 10 Partly cloudy - 26.0 1005.6 0.0
01/01:00am W 4 6 - - - - 10 Cloudy - 26.2 1006.6 0.0
01/12:30am W 1 4 - - - - 10 Partly cloudy - 26.3 1007.0 0.0
01/12:00am WNW 3 4 - - - - 10 Cloudy - 26.5 1007.4 0.0
 
Date/Time
EST
Wind Sea
Height
m
Swell Vis
km
Cloud Weather Temp
°C
Press
MSL
hPa
Rain since
9am
mm
Dir  Spd
kts
Gust
kts
Height
m
Period
s
Dir
31/11:30pm WNW 3 4 - - - - 10 Cloudy - 26.5 1007.5 0.0
31/11:00pm WNW 4 5 - - - - 10 Partly cloudy - 26.6 1007.7 0.0
31/10:30pm WSW 3 4 - - - - 10 Cloudy - 26.8 1007.6 0.0
31/10:00pm W 3 4 - - - - 10 Partly cloudy - 26.8 1007.8 0.0
31/09:30pm CALM 0 0 - - - - 10 Cloudy - 27.0 1007.5 0.0
31/09:00pm CALM 0 0 - - - - 10 Mostly cloudy - 26.9 1007.0 0.0
31/08:30pm SSW 3 4 - - - - 10 Partly cloudy - 27.1 1006.5 0.0
31/08:00pm WSW 3 4 - - - - 10 Partly cloudy - 27.3 1006.3 0.0
31/07:30pm NNE 3 5 - - - - 10 Partly cloudy - 27.4 1005.9 0.0
31/07:00pm NNE 3 4 - - - - 10 Partly cloudy - 27.6 1005.7 0.0
31/06:30pm N 4 6 - - - - 10 Partly cloudy - 28.1 1005.5 0.0
31/06:00pm N 3 4 - - - - 10 Cloudy - 28.4 1005.2 0.0
31/05:30pm N 5 7 - - - - 10 - - 28.7 1004.6 0.0
31/05:00pm ENE 8 11 - - - - 10 Partly cloudy - 29.4 1004.1 0.0
31/04:30pm E 10 13 - - - - 10 Partly cloudy - 29.5 1003.7 0.0
31/04:00pm E 10 13 - - - - 10 - - 30.5 1003.7 0.0
31/03:30pm E 10 13 - - - - 10 - - 29.8 1004.3 0.0
31/03:00pm E 10 13 - - - - 10 Mostly clear - 30.5 1004.6 0.0
31/02:51pm E 11 14 - - - - 10 Partly cloudy - 30.2 1004.7 0.0
31/02:30pm E 12 16 - - - - 10 Partly cloudy - 29.7 1004.8 0.0
31/02:28pm E 11 16 - - - - 10 Partly cloudy - 29.7 1004.9 0.0
31/02:00pm ENE 11 15 - - - - 10 - - 30.0 1005.3 0.0
31/01:30pm ENE 9 12 - - - - 10 - - 30.0 1005.6 0.0
31/01:00pm E 10 12 - - - - 10 - - 30.4 1006.2 0.0
31/12:30pm E 8 11 - - - - 10 Partly cloudy - 31.1 1006.7 0.0
31/12:00pm ESE 5 8 - - - - 10 Cloudy - 31.2 1007.3 0.0
31/11:30am ENE 5 7 - - - - 10 Partly cloudy - 30.5 1007.7 0.0
31/11:09am N 3 5 - - - - 10 Partly cloudy - 30.0 1008.0 0.0
31/11:00am NNE 4 7 - - - - 10 Partly cloudy - 30.0 1008.1 0.0
31/10:53am NE 5 7 - - - - 10 Partly cloudy - 29.6 1008.2 0.0
31/10:48am NE 4 7 - - - - 10 Partly cloudy - 29.8 1008.2 0.0
31/10:30am ENE 3 5 - - - - 10 Partly cloudy - 29.4 1008.4 0.0
31/10:28am E 3 5 - - - - 10 Partly cloudy - 29.4 1008.5 0.0
31/10:00am E 1 4 - - - - 10 Partly cloudy - 29.1 1008.8 0.0
31/09:30am N 1 5 - - - - 10 Cloudy - 27.6 1008.9 0.0
31/09:00am CALM 0 0 - - - - 7 Cloudy - 26.8 1008.9 10.4
31/08:30am S 3 4 - - - - 10 Partly cloudy - 26.4 1008.8 10.4
31/08:00am W 1 3 - - - - 10 Partly cloudy - 26.1 1008.7 10.4
31/07:30am W 1 4 - - - - 10 Partly cloudy - 25.4 1008.4 10.4
31/07:26am W 2 4 - - - - 10 Partly cloudy - 25.3 1008.4 10.4
31/07:00am CALM 0 0 - - - - 10 Partly cloudy - 25.0 1007.9 10.4
31/06:45am W 1 3 - - - - 9 Partly cloudy - 25.0 1007.7 10.4
31/06:30am W 3 4 - - - - 10 Partly cloudy - 24.9 1007.3 10.0
31/06:27am WNW 3 4 - - - - 10 Partly cloudy - 24.9 1007.2 10.0
31/06:17am WNW 5 6 - - - - 10 Partly cloudy - 24.9 1006.9 10.0
31/06:00am WNW 5 6 - - - - 10 Cloudy - 24.9 1006.6 10.0
31/05:38am SSW 1 4 - - - - 10 Partly cloudy - 25.0 1006.4 10.0
31/05:30am CALM 0 3 - - - - 10 Partly cloudy - 25.0 1006.5 10.0
31/05:00am SSE 4 6 - - - - 10 Partly cloudy - 25.0 1007.0 10.0
31/04:52am S 5 6 - - - - 10 Partly cloudy - 25.0 1007.2 10.0
31/04:47am S 5 7 - - - - 10 Partly cloudy - 25.0 1007.1 10.0
31/04:30am SSE 5 7 - - - - 10 Partly cloudy - 25.1 1007.2 9.8
31/04:00am SE 7 10 - - - - 10 Partly cloudy - 25.2 1006.9 9.8
31/03:42am SE 6 10 - - - - 10 Partly cloudy - 25.3 1006.9 9.8
31/03:30am SSE 7 11 - - - - 10 Partly cloudy - 25.3 1006.9 9.8
31/03:25am SSE 6 8 - - - - 10 Partly cloudy - 25.3 1006.8 9.8
31/03:00am SE 6 8 - - - - 10 Cloudy Recent precip. 25.2 1006.9 9.8
31/02:48am SSE 7 10 - - - - 10 Partly cloudy - 25.3 1007.1 9.8
31/02:30am SSE 3 6 - - - - 10 Partly cloudy - 25.2 1007.1 9.6
31/02:21am SSE 3 5 - - - - 10 Partly cloudy - 24.9 1007.1 9.6
31/02:00am ESE 5 8 - - - - 4 Partly cloudy - 25.0 1007.4 8.8
31/01:30am SE 5 6 - - - - 2 Partly cloudy - 25.3 1008.1 5.6
31/01:24am SE 5 6 - - - - 5 Partly cloudy - 25.3 1008.2 4.8
31/01:15am E 3 4 - - - - 9 Partly cloudy - 25.4 1008.3 4.0
31/01:00am NE 5 9 - - - - 4 Partly cloudy - 25.5 1008.5 3.6
31/12:39am NE 3 9 - - - - 5 Partly cloudy - 25.9 1008.9 0.4
31/12:30am CALM 0 0 - - - - 10 Partly cloudy - 25.6 1009.0 0.0
31/12:00am WNW 5 6 - - - - 10 Mostly clear - 25.8 1009.3 0.0

Other formats

Comma delimited format used in spreadsheet applications
http://www.bom.gov.au/fwo/IDQ60701/IDQ60701.95283.axf

JavaScript Object Notation format (JSON) in row-major order
http://www.bom.gov.au/fwo/IDQ60701/IDQ60701.95283.json

Data quality

Most of these data are generated automatically and are frequently updated. Quality checks on data are not normally performed. It is possible for incorrect values to appear. Refer to information at About Latest Weather Observations and please check the disclaimer before using these data.